sensor_id;sensor_type;location;lat;lon;timestamp;P1;durP1;ratioP1;P2;durP2;ratioP2
30505;SDS011;17292;51.600;4.994;2023-06-10T00:00:18;10.68;;;9.68;;
30505;SDS011;17292;51.600;4.994;2023-06-10T00:02:45;11.15;;;9.65;;
30505;SDS011;17292;51.600;4.994;2023-06-10T00:05:11;9.88;;;9.00;;
30505;SDS011;17292;51.600;4.994;2023-06-10T00:07:38;10.05;;;9.05;;
30505;SDS011;17292;51.600;4.994;2023-06-10T00:10:06;10.27;;;9.38;;
30505;SDS011;17292;51.600;4.994;2023-06-10T00:12:32;10.20;;;9.30;;
30505;SDS011;17292;51.600;4.994;2023-06-10T00:15:06;10.77;;;9.68;;
30505;SDS011;17292;51.600;4.994;2023-06-10T00:17:32;9.85;;;8.95;;
30505;SDS011;17292;51.600;4.994;2023-06-10T00:19:58;10.27;;;9.35;;
30505;SDS011;17292;51.600;4.994;2023-06-10T00:22:24;11.30;;;10.20;;
30505;SDS011;17292;51.600;4.994;2023-06-10T00:24:54;10.77;;;9.77;;
30505;SDS011;17292;51.600;4.994;2023-06-10T00:27:22;10.27;;;9.30;;
30505;SDS011;17292;51.600;4.994;2023-06-10T00:29:48;9.95;;;9.07;;
30505;SDS011;17292;51.600;4.994;2023-06-10T00:32:14;9.70;;;8.82;;
30505;SDS011;17292;51.600;4.994;2023-06-10T00:34:40;10.77;;;9.70;;
30505;SDS011;17292;51.600;4.994;2023-06-10T00:37:06;9.60;;;8.80;;
30505;SDS011;17292;51.600;4.994;2023-06-10T00:39:32;10.57;;;9.55;;
30505;SDS011;17292;51.600;4.994;2023-06-10T00:41:59;10.43;;;9.52;;
30505;SDS011;17292;51.600;4.994;2023-06-10T00:44:25;10.30;;;9.30;;
30505;SDS011;17292;51.600;4.994;2023-06-10T00:46:51;9.65;;;8.70;;
30505;SDS011;17292;51.600;4.994;2023-06-10T00:49:20;11.40;;;10.40;;
30505;SDS011;17292;51.600;4.994;2023-06-10T00:51:46;10.48;;;9.50;;
30505;SDS011;17292;51.600;4.994;2023-06-10T00:54:13;10.27;;;9.38;;
30505;SDS011;17292;51.600;4.994;2023-06-10T00:56:39;10.40;;;9.50;;
30505;SDS011;17292;51.600;4.994;2023-06-10T00:59:08;10.40;;;9.50;;
30505;SDS011;17292;51.600;4.994;2023-06-10T01:01:34;10.43;;;9.52;;
30505;SDS011;17292;51.600;4.994;2023-06-10T01:04:02;10.05;;;9.15;;
30505;SDS011;17292;51.600;4.994;2023-06-10T01:06:33;9.80;;;9.00;;
30505;SDS011;17292;51.600;4.994;2023-06-10T01:12:12;10.60;;;9.60;;
30505;SDS011;17292;51.600;4.994;2023-06-10T01:14:39;10.40;;;9.40;;
30505;SDS011;17292;51.600;4.994;2023-06-10T01:17:10;9.98;;;9.18;;
30505;SDS011;17292;51.600;4.994;2023-06-10T01:19:36;10.65;;;9.55;;
30505;SDS011;17292;51.600;4.994;2023-06-10T01:22:03;10.02;;;9.05;;
30505;SDS011;17292;51.600;4.994;2023-06-10T01:24:30;10.88;;;9.95;;
30505;SDS011;17292;51.600;4.994;2023-06-10T01:26:59;10.52;;;9.55;;
30505;SDS011;17292;51.600;4.994;2023-06-10T01:29:31;9.90;;;8.98;;
30505;SDS011;17292;51.600;4.994;2023-06-10T01:34:25;10.23;;;9.30;;
30505;SDS011;17292;51.600;4.994;2023-06-10T01:36:52;10.13;;;9.23;;
30505;SDS011;17292;51.600;4.994;2023-06-10T01:39:20;10.07;;;9.23;;
30505;SDS011;17292;51.600;4.994;2023-06-10T01:41:47;10.40;;;9.35;;
30505;SDS011;17292;51.600;4.994;2023-06-10T01:44:17;10.48;;;9.57;;
30505;SDS011;17292;51.600;4.994;2023-06-10T01:46:43;10.60;;;9.70;;
30505;SDS011;17292;51.600;4.994;2023-06-10T01:49:09;10.63;;;9.68;;
30505;SDS011;17292;51.600;4.994;2023-06-10T01:51:35;10.32;;;9.43;;
30505;SDS011;17292;51.600;4.994;2023-06-10T01:54:02;10.57;;;9.57;;
30505;SDS011;17292;51.600;4.994;2023-06-10T01:56:28;10.95;;;9.85;;
30505;SDS011;17292;51.600;4.994;2023-06-10T01:58:54;11.27;;;10.25;;
30505;SDS011;17292;51.600;4.994;2023-06-10T02:01:24;11.32;;;10.13;;
30505;SDS011;17292;51.600;4.994;2023-06-10T02:03:50;11.27;;;10.27;;
30505;SDS011;17292;51.600;4.994;2023-06-10T02:06:16;9.88;;;9.07;;
30505;SDS011;17292;51.600;4.994;2023-06-10T02:08:42;10.50;;;9.50;;
30505;SDS011;17292;51.600;4.994;2023-06-10T02:11:09;11.45;;;10.30;;
30505;SDS011;17292;51.600;4.994;2023-06-10T02:13:35;10.50;;;9.48;;
30505;SDS011;17292;51.600;4.994;2023-06-10T02:16:01;10.40;;;9.45;;
30505;SDS011;17292;51.600;4.994;2023-06-10T02:18:27;10.75;;;9.65;;
30505;SDS011;17292;51.600;4.994;2023-06-10T02:20:54;10.82;;;9.85;;
30505;SDS011;17292;51.600;4.994;2023-06-10T02:23:20;10.70;;;9.70;;
30505;SDS011;17292;51.600;4.994;2023-06-10T02:25:46;10.40;;;9.60;;
30505;SDS011;17292;51.600;4.994;2023-06-10T02:28:13;11.02;;;10.02;;
30505;SDS011;17292;51.600;4.994;2023-06-10T02:30:40;10.25;;;9.35;;
30505;SDS011;17292;51.600;4.994;2023-06-10T02:33:07;10.57;;;9.68;;
30505;SDS011;17292;51.600;4.994;2023-06-10T02:35:38;11.18;;;10.18;;
30505;SDS011;17292;51.600;4.994;2023-06-10T02:38:04;11.15;;;10.15;;
30505;SDS011;17292;51.600;4.994;2023-06-10T02:40:30;11.27;;;10.30;;
30505;SDS011;17292;51.600;4.994;2023-06-10T02:42:57;11.27;;;10.07;;
30505;SDS011;17292;51.600;4.994;2023-06-10T02:45:24;11.57;;;10.57;;
30505;SDS011;17292;51.600;4.994;2023-06-10T02:47:50;11.20;;;10.30;;
30505;SDS011;17292;51.600;4.994;2023-06-10T02:50:16;11.35;;;10.32;;
30505;SDS011;17292;51.600;4.994;2023-06-10T02:52:43;11.30;;;10.30;;
30505;SDS011;17292;51.600;4.994;2023-06-10T02:55:09;11.38;;;10.38;;
30505;SDS011;17292;51.600;4.994;2023-06-10T02:57:35;11.50;;;10.60;;
30505;SDS011;17292;51.600;4.994;2023-06-10T03:00:02;11.43;;;10.43;;
30505;SDS011;17292;51.600;4.994;2023-06-10T03:02:34;11.80;;;10.80;;
30505;SDS011;17292;51.600;4.994;2023-06-10T03:05:02;12.18;;;10.98;;
30505;SDS011;17292;51.600;4.994;2023-06-10T03:07:28;11.65;;;10.65;;
30505;SDS011;17292;51.600;4.994;2023-06-10T03:09:55;11.90;;;10.80;;
30505;SDS011;17292;51.600;4.994;2023-06-10T03:12:21;11.45;;;10.45;;
30505;SDS011;17292;51.600;4.994;2023-06-10T03:14:47;11.77;;;10.85;;
30505;SDS011;17292;51.600;4.994;2023-06-10T03:17:13;11.70;;;10.75;;
30505;SDS011;17292;51.600;4.994;2023-06-10T03:19:39;12.05;;;10.95;;
30505;SDS011;17292;51.600;4.994;2023-06-10T03:24:35;12.50;;;11.40;;
30505;SDS011;17292;51.600;4.994;2023-06-10T03:27:01;12.13;;;11.07;;
30505;SDS011;17292;51.600;4.994;2023-06-10T03:29:30;12.25;;;11.15;;
30505;SDS011;17292;51.600;4.994;2023-06-10T03:31:56;12.07;;;11.07;;
30505;SDS011;17292;51.600;4.994;2023-06-10T03:34:23;12.85;;;11.65;;
30505;SDS011;17292;51.600;4.994;2023-06-10T03:36:49;12.60;;;11.50;;
30505;SDS011;17292;51.600;4.994;2023-06-10T03:39:15;12.98;;;11.70;;
30505;SDS011;17292;51.600;4.994;2023-06-10T03:41:41;12.63;;;11.43;;
30505;SDS011;17292;51.600;4.994;2023-06-10T03:44:07;12.52;;;11.43;;
30505;SDS011;17292;51.600;4.994;2023-06-10T03:46:33;12.38;;;11.27;;
30505;SDS011;17292;51.600;4.994;2023-06-10T03:49:00;11.75;;;10.75;;
30505;SDS011;17292;51.600;4.994;2023-06-10T03:51:26;11.43;;;10.52;;
30505;SDS011;17292;51.600;4.994;2023-06-10T03:53:52;12.60;;;11.50;;
30505;SDS011;17292;51.600;4.994;2023-06-10T03:56:19;12.13;;;11.02;;
30505;SDS011;17292;51.600;4.994;2023-06-10T03:58:45;11.80;;;10.80;;
30505;SDS011;17292;51.600;4.994;2023-06-10T04:01:11;11.75;;;10.75;;
30505;SDS011;17292;51.600;4.994;2023-06-10T04:03:38;12.52;;;11.43;;
30505;SDS011;17292;51.600;4.994;2023-06-10T04:06:07;13.63;;;12.23;;
30505;SDS011;17292;51.600;4.994;2023-06-10T04:08:33;12.40;;;11.40;;
30505;SDS011;17292;51.600;4.994;2023-06-10T04:10:59;13.07;;;11.93;;
30505;SDS011;17292;51.600;4.994;2023-06-10T04:13:25;13.02;;;11.90;;
30505;SDS011;17292;51.600;4.994;2023-06-10T04:15:52;12.63;;;11.63;;
30505;SDS011;17292;51.600;4.994;2023-06-10T04:18:19;13.30;;;12.10;;
30505;SDS011;17292;51.600;4.994;2023-06-10T04:20:47;12.57;;;11.48;;
30505;SDS011;17292;51.600;4.994;2023-06-10T04:23:13;12.80;;;11.75;;
30505;SDS011;17292;51.600;4.994;2023-06-10T04:25:39;13.23;;;12.07;;
30505;SDS011;17292;51.600;4.994;2023-06-10T04:28:05;12.35;;;11.23;;
30505;SDS011;17292;51.600;4.994;2023-06-10T04:30:31;13.15;;;12.05;;
30505;SDS011;17292;51.600;4.994;2023-06-10T04:32:58;12.13;;;11.13;;
30505;SDS011;17292;51.600;4.994;2023-06-10T04:35:24;12.98;;;11.88;;
30505;SDS011;17292;51.600;4.994;2023-06-10T04:37:53;12.70;;;11.57;;
30505;SDS011;17292;51.600;4.994;2023-06-10T04:40:19;12.52;;;11.48;;
30505;SDS011;17292;51.600;4.994;2023-06-10T04:42:45;12.27;;;11.25;;
30505;SDS011;17292;51.600;4.994;2023-06-10T04:45:11;13.25;;;12.05;;
30505;SDS011;17292;51.600;4.994;2023-06-10T04:47:37;13.30;;;12.10;;
30505;SDS011;17292;51.600;4.994;2023-06-10T04:50:04;12.80;;;11.70;;
30505;SDS011;17292;51.600;4.994;2023-06-10T04:52:30;13.05;;;11.73;;
30505;SDS011;17292;51.600;4.994;2023-06-10T04:54:57;13.77;;;12.48;;
30505;SDS011;17292;51.600;4.994;2023-06-10T04:57:23;12.75;;;11.65;;
30505;SDS011;17292;51.600;4.994;2023-06-10T04:59:51;12.13;;;11.13;;
30505;SDS011;17292;51.600;4.994;2023-06-10T05:02:17;13.45;;;12.25;;
30505;SDS011;17292;51.600;4.994;2023-06-10T05:04:43;13.40;;;12.20;;
30505;SDS011;17292;51.600;4.994;2023-06-10T05:07:09;13.27;;;12.18;;
30505;SDS011;17292;51.600;4.994;2023-06-10T05:09:36;12.75;;;11.45;;
30505;SDS011;17292;51.600;4.994;2023-06-10T05:12:02;12.60;;;11.40;;
30505;SDS011;17292;51.600;4.994;2023-06-10T05:14:28;13.10;;;12.00;;
30505;SDS011;17292;51.600;4.994;2023-06-10T05:16:55;13.32;;;12.05;;
30505;SDS011;17292;51.600;4.994;2023-06-10T05:19:21;13.07;;;11.95;;
30505;SDS011;17292;51.600;4.994;2023-06-10T05:21:47;12.50;;;11.50;;
30505;SDS011;17292;51.600;4.994;2023-06-10T05:24:14;13.05;;;11.95;;
30505;SDS011;17292;51.600;4.994;2023-06-10T05:26:40;12.40;;;11.38;;
30505;SDS011;17292;51.600;4.994;2023-06-10T05:29:06;12.88;;;11.75;;
30505;SDS011;17292;51.600;4.994;2023-06-10T05:31:34;12.18;;;11.18;;
30505;SDS011;17292;51.600;4.994;2023-06-10T05:34:00;12.75;;;11.73;;
30505;SDS011;17292;51.600;4.994;2023-06-10T05:36:26;12.23;;;11.27;;
30505;SDS011;17292;51.600;4.994;2023-06-10T05:38:52;12.25;;;11.25;;
30505;SDS011;17292;51.600;4.994;2023-06-10T05:41:18;12.65;;;11.55;;
30505;SDS011;17292;51.600;4.994;2023-06-10T05:43:45;12.30;;;11.20;;
30505;SDS011;17292;51.600;4.994;2023-06-10T05:46:12;12.20;;;11.20;;
30505;SDS011;17292;51.600;4.994;2023-06-10T05:48:38;13.27;;;12.07;;
30505;SDS011;17292;51.600;4.994;2023-06-10T05:51:04;12.70;;;11.52;;
30505;SDS011;17292;51.600;4.994;2023-06-10T05:53:31;12.50;;;11.50;;
30505;SDS011;17292;51.600;4.994;2023-06-10T05:55:57;12.23;;;11.13;;
30505;SDS011;17292;51.600;4.994;2023-06-10T05:58:23;12.05;;;10.95;;
30505;SDS011;17292;51.600;4.994;2023-06-10T06:00:50;12.75;;;11.65;;
30505;SDS011;17292;51.600;4.994;2023-06-10T06:03:16;12.45;;;11.27;;
30505;SDS011;17292;51.600;4.994;2023-06-10T06:05:43;11.77;;;10.82;;
30505;SDS011;17292;51.600;4.994;2023-06-10T06:08:11;12.50;;;11.40;;
30505;SDS011;17292;51.600;4.994;2023-06-10T06:10:38;12.35;;;11.35;;
30505;SDS011;17292;51.600;4.994;2023-06-10T06:13:04;12.15;;;11.10;;
30505;SDS011;17292;51.600;4.994;2023-06-10T06:15:30;12.05;;;11.00;;
30505;SDS011;17292;51.600;4.994;2023-06-10T06:17:57;12.10;;;11.07;;
30505;SDS011;17292;51.600;4.994;2023-06-10T06:20:23;12.23;;;11.13;;
30505;SDS011;17292;51.600;4.994;2023-06-10T06:22:49;12.23;;;11.13;;
30505;SDS011;17292;51.600;4.994;2023-06-10T06:25:15;11.80;;;10.77;;
30505;SDS011;17292;51.600;4.994;2023-06-10T06:27:41;12.20;;;11.13;;
30505;SDS011;17292;51.600;4.994;2023-06-10T06:30:08;12.07;;;11.07;;
30505;SDS011;17292;51.600;4.994;2023-06-10T06:32:34;11.63;;;10.60;;
30505;SDS011;17292;51.600;4.994;2023-06-10T06:35:00;11.90;;;10.90;;
30505;SDS011;17292;51.600;4.994;2023-06-10T06:37:27;11.80;;;10.77;;
30505;SDS011;17292;51.600;4.994;2023-06-10T06:39:53;11.82;;;10.82;;
30505;SDS011;17292;51.600;4.994;2023-06-10T06:42:19;10.88;;;9.95;;
30505;SDS011;17292;51.600;4.994;2023-06-10T06:44:46;11.23;;;10.25;;
30505;SDS011;17292;51.600;4.994;2023-06-10T06:47:12;11.70;;;10.70;;
30505;SDS011;17292;51.600;4.994;2023-06-10T06:49:39;10.65;;;9.75;;
30505;SDS011;17292;51.600;4.994;2023-06-10T06:52:05;11.23;;;10.32;;
30505;SDS011;17292;51.600;4.994;2023-06-10T06:54:31;10.77;;;9.88;;
30505;SDS011;17292;51.600;4.994;2023-06-10T06:56:57;11.23;;;10.32;;
30505;SDS011;17292;51.600;4.994;2023-06-10T06:59:23;10.30;;;9.43;;
30505;SDS011;17292;51.600;4.994;2023-06-10T07:01:50;10.80;;;9.90;;
30505;SDS011;17292;51.600;4.994;2023-06-10T07:04:19;10.70;;;9.80;;
30505;SDS011;17292;51.600;4.994;2023-06-10T07:06:47;9.73;;;8.98;;
30505;SDS011;17292;51.600;4.994;2023-06-10T07:09:13;11.00;;;10.10;;
30505;SDS011;17292;51.600;4.994;2023-06-10T07:11:39;11.13;;;10.02;;
30505;SDS011;17292;51.600;4.994;2023-06-10T07:14:05;10.63;;;9.80;;
30505;SDS011;17292;51.600;4.994;2023-06-10T07:16:32;10.35;;;9.45;;
30505;SDS011;17292;51.600;4.994;2023-06-10T07:18:58;10.70;;;9.77;;
30505;SDS011;17292;51.600;4.994;2023-06-10T07:21:24;10.80;;;9.80;;
30505;SDS011;17292;51.600;4.994;2023-06-10T07:23:50;11.10;;;10.20;;
30505;SDS011;17292;51.600;4.994;2023-06-10T07:26:18;10.60;;;9.77;;
30505;SDS011;17292;51.600;4.994;2023-06-10T07:28:45;11.20;;;10.23;;
30505;SDS011;17292;51.600;4.994;2023-06-10T07:31:11;10.50;;;9.70;;
30505;SDS011;17292;51.600;4.994;2023-06-10T07:33:37;10.30;;;9.50;;
30505;SDS011;17292;51.600;4.994;2023-06-10T07:36:07;10.80;;;9.93;;
30505;SDS011;17292;51.600;4.994;2023-06-10T07:38:33;10.75;;;9.85;;
30505;SDS011;17292;51.600;4.994;2023-06-10T07:40:59;10.43;;;9.63;;
30505;SDS011;17292;51.600;4.994;2023-06-10T07:43:25;10.35;;;9.48;;
30505;SDS011;17292;51.600;4.994;2023-06-10T07:45:51;11.45;;;10.45;;
30505;SDS011;17292;51.600;4.994;2023-06-10T07:48:18;10.88;;;9.98;;
30505;SDS011;17292;51.600;4.994;2023-06-10T07:50:44;10.50;;;9.70;;
30505;SDS011;17292;51.600;4.994;2023-06-10T07:53:10;11.02;;;10.13;;
30505;SDS011;17292;51.600;4.994;2023-06-10T07:55:36;10.48;;;9.57;;
30505;SDS011;17292;51.600;4.994;2023-06-10T07:58:02;10.80;;;9.90;;
30505;SDS011;17292;51.600;4.994;2023-06-10T08:00:28;11.20;;;10.20;;
30505;SDS011;17292;51.600;4.994;2023-06-10T08:02:54;11.90;;;10.80;;
30505;SDS011;17292;51.600;4.994;2023-06-10T08:05:21;11.30;;;10.30;;
30505;SDS011;17292;51.600;4.994;2023-06-10T08:07:47;11.63;;;10.63;;
30505;SDS011;17292;51.600;4.994;2023-06-10T08:10:13;11.35;;;10.45;;
30505;SDS011;17292;51.600;4.994;2023-06-10T08:12:39;11.70;;;10.70;;
30505;SDS011;17292;51.600;4.994;2023-06-10T08:15:05;11.77;;;10.70;;
30505;SDS011;17292;51.600;4.994;2023-06-10T08:17:32;11.63;;;10.63;;
30505;SDS011;17292;51.600;4.994;2023-06-10T08:19:58;12.02;;;11.02;;
30505;SDS011;17292;51.600;4.994;2023-06-10T08:22:24;11.55;;;10.55;;
30505;SDS011;17292;51.600;4.994;2023-06-10T08:24:50;11.52;;;10.55;;
30505;SDS011;17292;51.600;4.994;2023-06-10T08:27:16;11.60;;;10.60;;
30505;SDS011;17292;51.600;4.994;2023-06-10T08:29:43;11.00;;;10.07;;
30505;SDS011;17292;51.600;4.994;2023-06-10T08:32:09;12.00;;;10.93;;
30505;SDS011;17292;51.600;4.994;2023-06-10T08:34:35;12.10;;;10.93;;
30505;SDS011;17292;51.600;4.994;2023-06-10T08:37:02;12.00;;;10.93;;
30505;SDS011;17292;51.600;4.994;2023-06-10T08:39:28;11.68;;;10.68;;
30505;SDS011;17292;51.600;4.994;2023-06-10T08:42:11;11.73;;;10.63;;
30505;SDS011;17292;51.600;4.994;2023-06-10T08:44:43;11.55;;;10.45;;
30505;SDS011;17292;51.600;4.994;2023-06-10T08:47:15;11.60;;;10.60;;
30505;SDS011;17292;51.600;4.994;2023-06-10T08:49:44;12.20;;;11.20;;
30505;SDS011;17292;51.600;4.994;2023-06-10T08:52:14;11.57;;;10.57;;
30505;SDS011;17292;51.600;4.994;2023-06-10T08:54:42;11.02;;;10.13;;
30505;SDS011;17292;51.600;4.994;2023-06-10T08:57:09;11.02;;;10.13;;
30505;SDS011;17292;51.600;4.994;2023-06-10T08:59:36;11.70;;;10.77;;
30505;SDS011;17292;51.600;4.994;2023-06-10T09:02:02;11.48;;;10.48;;
30505;SDS011;17292;51.600;4.994;2023-06-10T09:04:30;11.43;;;10.43;;
30505;SDS011;17292;51.600;4.994;2023-06-10T09:06:56;12.35;;;11.27;;
30505;SDS011;17292;51.600;4.994;2023-06-10T09:09:23;11.77;;;10.77;;
30505;SDS011;17292;51.600;4.994;2023-06-10T09:11:49;11.07;;;10.18;;
30505;SDS011;17292;51.600;4.994;2023-06-10T09:14:15;11.82;;;10.77;;
30505;SDS011;17292;51.600;4.994;2023-06-10T09:16:41;11.73;;;10.82;;
30505;SDS011;17292;51.600;4.994;2023-06-10T09:19:08;11.40;;;10.40;;
30505;SDS011;17292;51.600;4.994;2023-06-10T09:21:34;11.68;;;10.68;;
30505;SDS011;17292;51.600;4.994;2023-06-10T09:24:01;11.70;;;10.70;;
30505;SDS011;17292;51.600;4.994;2023-06-10T09:26:27;11.30;;;10.30;;
30505;SDS011;17292;51.600;4.994;2023-06-10T09:29:02;11.57;;;10.57;;
30505;SDS011;17292;51.600;4.994;2023-06-10T09:31:29;11.23;;;10.23;;
30505;SDS011;17292;51.600;4.994;2023-06-10T09:34:04;11.68;;;10.57;;
30505;SDS011;17292;51.600;4.994;2023-06-10T09:36:30;11.38;;;10.38;;
30505;SDS011;17292;51.600;4.994;2023-06-10T09:38:56;12.95;;;10.93;;
30505;SDS011;17292;51.600;4.994;2023-06-10T09:41:31;11.85;;;10.70;;
30505;SDS011;17292;51.600;4.994;2023-06-10T09:43:57;11.07;;;10.18;;
30505;SDS011;17292;51.600;4.994;2023-06-10T09:46:24;11.38;;;10.45;;
30505;SDS011;17292;51.600;4.994;2023-06-10T09:48:50;11.95;;;10.88;;
30505;SDS011;17292;51.600;4.994;2023-06-10T09:51:16;12.00;;;11.00;;
30505;SDS011;17292;51.600;4.994;2023-06-10T09:53:42;12.15;;;11.15;;
30505;SDS011;17292;51.600;4.994;2023-06-10T09:56:08;11.52;;;10.57;;
30505;SDS011;17292;51.600;4.994;2023-06-10T09:58:35;11.68;;;10.70;;
30505;SDS011;17292;51.600;4.994;2023-06-10T10:01:05;11.93;;;11.02;;
30505;SDS011;17292;51.600;4.994;2023-06-10T10:03:32;11.80;;;10.82;;
30505;SDS011;17292;51.600;4.994;2023-06-10T10:05:58;11.65;;;10.60;;
30505;SDS011;17292;51.600;4.994;2023-06-10T10:08:25;12.07;;;10.98;;
30505;SDS011;17292;51.600;4.994;2023-06-10T10:10:51;12.18;;;11.13;;
30505;SDS011;17292;51.600;4.994;2023-06-10T10:13:18;12.00;;;10.85;;
30505;SDS011;17292;51.600;4.994;2023-06-10T10:15:44;12.57;;;11.48;;
30505;SDS011;17292;51.600;4.994;2023-06-10T10:18:11;12.13;;;11.02;;
30505;SDS011;17292;51.600;4.994;2023-06-10T10:20:49;11.95;;;10.85;;
30505;SDS011;17292;51.600;4.994;2023-06-10T10:23:21;12.05;;;10.85;;
30505;SDS011;17292;51.600;4.994;2023-06-10T10:25:51;11.90;;;10.90;;
30505;SDS011;17292;51.600;4.994;2023-06-10T10:28:18;12.00;;;11.00;;
30505;SDS011;17292;51.600;4.994;2023-06-10T10:30:49;11.98;;;10.98;;
30505;SDS011;17292;51.600;4.994;2023-06-10T10:33:19;12.18;;;11.18;;
30505;SDS011;17292;51.600;4.994;2023-06-10T10:35:47;11.82;;;10.82;;
30505;SDS011;17292;51.600;4.994;2023-06-10T10:38:13;12.02;;;11.02;;
30505;SDS011;17292;51.600;4.994;2023-06-10T10:40:40;11.30;;;10.25;;
30505;SDS011;17292;51.600;4.994;2023-06-10T10:43:06;11.45;;;10.55;;
30505;SDS011;17292;51.600;4.994;2023-06-10T10:45:33;12.43;;;11.23;;
30505;SDS011;17292;51.600;4.994;2023-06-10T10:48:04;12.00;;;11.00;;
30505;SDS011;17292;51.600;4.994;2023-06-10T10:50:30;12.45;;;11.35;;
30505;SDS011;17292;51.600;4.994;2023-06-10T10:53:04;12.43;;;11.27;;
30505;SDS011;17292;51.600;4.994;2023-06-10T10:55:30;12.65;;;11.35;;
30505;SDS011;17292;51.600;4.994;2023-06-10T10:57:58;12.57;;;11.30;;
30505;SDS011;17292;51.600;4.994;2023-06-10T11:00:26;12.50;;;11.40;;
30505;SDS011;17292;51.600;4.994;2023-06-10T11:02:53;12.57;;;11.48;;
30505;SDS011;17292;51.600;4.994;2023-06-10T11:05:31;11.90;;;10.90;;
30505;SDS011;17292;51.600;4.994;2023-06-10T11:07:57;12.50;;;11.50;;
30505;SDS011;17292;51.600;4.994;2023-06-10T11:10:28;12.50;;;11.40;;
30505;SDS011;17292;51.600;4.994;2023-06-10T11:12:55;11.75;;;10.75;;
30505;SDS011;17292;51.600;4.994;2023-06-10T11:15:23;11.75;;;10.75;;
30505;SDS011;17292;51.600;4.994;2023-06-10T11:28:40;12.05;;;11.05;;
30505;SDS011;17292;51.600;4.994;2023-06-10T11:31:06;12.18;;;11.18;;
30505;SDS011;17292;51.600;4.994;2023-06-10T11:33:32;12.68;;;11.48;;
30505;SDS011;17292;51.600;4.994;2023-06-10T11:35:58;12.57;;;11.43;;
30505;SDS011;17292;51.600;4.994;2023-06-10T11:38:25;12.38;;;11.20;;
30505;SDS011;17292;51.600;4.994;2023-06-10T11:40:51;13.98;;;12.68;;
30505;SDS011;17292;51.600;4.994;2023-06-10T11:43:17;12.55;;;11.43;;
30505;SDS011;17292;51.600;4.994;2023-06-10T11:45:44;11.95;;;10.95;;
30505;SDS011;17292;51.600;4.994;2023-06-10T11:48:10;12.85;;;11.55;;
30505;SDS011;17292;51.600;4.994;2023-06-10T11:50:36;12.63;;;11.57;;
30505;SDS011;17292;51.600;4.994;2023-06-10T11:53:03;12.95;;;11.75;;
30505;SDS011;17292;51.600;4.994;2023-06-10T11:55:42;12.75;;;11.73;;
30505;SDS011;17292;51.600;4.994;2023-06-10T12:00:47;13.45;;;12.25;;
30505;SDS011;17292;51.600;4.994;2023-06-10T12:03:14;12.82;;;11.73;;
30505;SDS011;17292;51.600;4.994;2023-06-10T12:05:40;12.27;;;11.27;;
30505;SDS011;17292;51.600;4.994;2023-06-10T12:08:19;11.52;;;10.52;;
30505;SDS011;17292;51.600;4.994;2023-06-10T12:10:45;12.70;;;11.70;;
30505;SDS011;17292;51.600;4.994;2023-06-10T12:13:11;12.98;;;11.88;;
30505;SDS011;17292;51.600;4.994;2023-06-10T12:15:37;12.77;;;11.75;;
30505;SDS011;17292;51.600;4.994;2023-06-10T12:18:03;13.20;;;12.05;;
30505;SDS011;17292;51.600;4.994;2023-06-10T12:20:31;13.27;;;12.18;;
30505;SDS011;17292;51.600;4.994;2023-06-10T12:22:58;12.95;;;11.95;;
30505;SDS011;17292;51.600;4.994;2023-06-10T12:25:26;12.77;;;11.68;;
30505;SDS011;17292;51.600;4.994;2023-06-10T12:27:53;12.38;;;11.38;;
30505;SDS011;17292;51.600;4.994;2023-06-10T12:30:19;13.13;;;12.00;;
30505;SDS011;17292;51.600;4.994;2023-06-10T12:32:46;13.60;;;12.45;;
30505;SDS011;17292;51.600;4.994;2023-06-10T12:35:17;13.40;;;12.25;;
30505;SDS011;17292;51.600;4.994;2023-06-10T12:38:03;13.02;;;11.93;;
30505;SDS011;17292;51.600;4.994;2023-06-10T12:40:41;13.45;;;12.15;;
30505;SDS011;17292;51.600;4.994;2023-06-10T12:43:08;13.82;;;12.60;;
30505;SDS011;17292;51.600;4.994;2023-06-10T12:45:35;12.80;;;11.75;;
30505;SDS011;17292;51.600;4.994;2023-06-10T12:48:10;13.32;;;12.23;;
30505;SDS011;17292;51.600;4.994;2023-06-10T12:50:40;14.05;;;12.85;;
30505;SDS011;17292;51.600;4.994;2023-06-10T12:53:07;13.95;;;12.55;;
30505;SDS011;17292;51.600;4.994;2023-06-10T12:55:33;13.20;;;12.02;;
30505;SDS011;17292;51.600;4.994;2023-06-10T12:58:00;13.82;;;12.63;;
30505;SDS011;17292;51.600;4.994;2023-06-10T13:00:26;13.13;;;12.13;;
30505;SDS011;17292;51.600;4.994;2023-06-10T13:02:55;13.82;;;12.63;;
30505;SDS011;17292;51.600;4.994;2023-06-10T13:05:22;13.90;;;12.70;;
30505;SDS011;17292;51.600;4.994;2023-06-10T13:07:48;13.98;;;12.77;;
30505;SDS011;17292;51.600;4.994;2023-06-10T13:10:14;13.75;;;12.57;;
30505;SDS011;17292;51.600;4.994;2023-06-10T13:12:42;13.65;;;12.45;;
30505;SDS011;17292;51.600;4.994;2023-06-10T13:15:08;13.70;;;12.52;;
30505;SDS011;17292;51.600;4.994;2023-06-10T13:17:34;14.10;;;12.80;;
30505;SDS011;17292;51.600;4.994;2023-06-10T13:20:04;13.65;;;12.43;;
30505;SDS011;17292;51.600;4.994;2023-06-10T13:22:30;14.00;;;12.70;;
30505;SDS011;17292;51.600;4.994;2023-06-10T13:24:59;13.73;;;12.52;;
30505;SDS011;17292;51.600;4.994;2023-06-10T13:27:25;13.77;;;12.43;;
30505;SDS011;17292;51.600;4.994;2023-06-10T13:29:52;13.88;;;12.65;;
30505;SDS011;17292;51.600;4.994;2023-06-10T13:32:18;13.88;;;12.68;;
30505;SDS011;17292;51.600;4.994;2023-06-10T13:34:45;14.27;;;12.88;;
30505;SDS011;17292;51.600;4.994;2023-06-10T13:37:11;14.15;;;12.95;;
30505;SDS011;17292;51.600;4.994;2023-06-10T13:39:38;14.65;;;13.25;;
30505;SDS011;17292;51.600;4.994;2023-06-10T13:42:04;14.43;;;13.10;;
30505;SDS011;17292;51.600;4.994;2023-06-10T13:44:33;14.43;;;13.23;;
30505;SDS011;17292;51.600;4.994;2023-06-10T13:47:01;13.90;;;12.70;;
30505;SDS011;17292;51.600;4.994;2023-06-10T13:49:27;13.68;;;12.48;;
30505;SDS011;17292;51.600;4.994;2023-06-10T13:51:54;13.68;;;12.57;;
30505;SDS011;17292;51.600;4.994;2023-06-10T13:54:20;13.95;;;12.75;;
30505;SDS011;17292;51.600;4.994;2023-06-10T13:56:46;14.18;;;12.95;;
30505;SDS011;17292;51.600;4.994;2023-06-10T13:59:12;13.88;;;12.75;;
30505;SDS011;17292;51.600;4.994;2023-06-10T14:01:39;13.85;;;12.63;;
30505;SDS011;17292;51.600;4.994;2023-06-10T14:04:07;15.73;;;13.57;;
30505;SDS011;17292;51.600;4.994;2023-06-10T14:06:34;13.65;;;12.48;;
30505;SDS011;17292;51.600;4.994;2023-06-10T14:09:00;13.63;;;12.52;;
30505;SDS011;17292;51.600;4.994;2023-06-10T14:11:26;14.23;;;12.93;;
30505;SDS011;17292;51.600;4.994;2023-06-10T14:13:52;14.27;;;12.98;;
30505;SDS011;17292;51.600;4.994;2023-06-10T14:16:21;14.15;;;12.95;;
30505;SDS011;17292;51.600;4.994;2023-06-10T14:18:47;14.38;;;13.18;;
30505;SDS011;17292;51.600;4.994;2023-06-10T14:21:15;15.00;;;13.60;;
30505;SDS011;17292;51.600;4.994;2023-06-10T14:23:41;14.32;;;13.00;;
30505;SDS011;17292;51.600;4.994;2023-06-10T14:26:08;14.35;;;13.15;;
30505;SDS011;17292;51.600;4.994;2023-06-10T14:28:34;14.55;;;13.35;;
30505;SDS011;17292;51.600;4.994;2023-06-10T14:31:00;14.15;;;12.85;;
30505;SDS011;17292;51.600;4.994;2023-06-10T14:33:27;14.10;;;12.90;;
30505;SDS011;17292;51.600;4.994;2023-06-10T14:35:53;13.77;;;12.50;;
30505;SDS011;17292;51.600;4.994;2023-06-10T14:38:20;13.98;;;12.77;;
30505;SDS011;17292;51.600;4.994;2023-06-10T14:40:46;13.63;;;12.52;;
30505;SDS011;17292;51.600;4.994;2023-06-10T14:43:12;14.20;;;12.98;;
30505;SDS011;17292;51.600;4.994;2023-06-10T14:45:39;13.88;;;12.77;;